createdAt,value
2023-05-09T00:00:17.171Z,3.70
2023-05-09T00:03:21.162Z,3.22
2023-05-09T00:06:23.271Z,3.20
2023-05-09T00:09:25.653Z,3.38
2023-05-09T00:12:28.594Z,3.50
2023-05-09T00:15:32.083Z,3.83
2023-05-09T00:18:34.238Z,3.75
2023-05-09T00:21:36.170Z,3.40
2023-05-09T00:24:38.175Z,3.00
2023-05-09T00:27:40.617Z,3.38
2023-05-09T00:30:42.852Z,3.70
2023-05-09T00:33:44.833Z,3.38
2023-05-09T00:36:46.894Z,3.38
2023-05-09T00:39:49.068Z,3.55
2023-05-09T00:42:51.606Z,3.58
2023-05-09T00:45:54.199Z,3.53
2023-05-09T00:48:56.685Z,3.55
2023-05-09T00:51:58.841Z,3.67
2023-05-09T00:55:01.084Z,3.57
2023-05-09T00:58:03.353Z,3.40
2023-05-09T01:01:05.765Z,3.58
2023-05-09T01:04:08.176Z,3.38
2023-05-09T01:07:11.996Z,3.75
2023-05-09T01:10:14.052Z,3.20
2023-05-09T01:13:22.217Z,3.17
2023-05-09T01:16:46.342Z,3.77
2023-05-09T01:19:50.865Z,4.20
2023-05-09T01:22:55.660Z,3.55
2023-05-09T01:26:08.537Z,3.30
2023-05-09T01:29:13.779Z,3.72
2023-05-09T01:32:19.931Z,3.75
2023-05-09T01:35:22.022Z,3.13
2023-05-09T01:38:24.165Z,3.03
2023-05-09T01:41:26.918Z,3.25
2023-05-09T01:44:31.350Z,3.35
2023-05-09T01:47:34.318Z,3.50
2023-05-09T01:50:36.339Z,3.33
2023-05-09T01:53:38.380Z,3.35
2023-05-09T01:56:40.308Z,3.67
2023-05-09T01:59:43.354Z,3.22
2023-05-09T02:02:45.511Z,3.35
2023-05-09T02:05:47.721Z,3.22
2023-05-09T02:08:49.756Z,3.85
2023-05-09T02:11:51.744Z,3.30
2023-05-09T02:14:54.875Z,3.50
2023-05-09T02:18:04.141Z,3.47
2023-05-09T02:21:06.337Z,3.33
2023-05-09T02:24:08.911Z,3.55
2023-05-09T02:27:11.079Z,3.20
2023-05-09T02:30:15.210Z,3.20
2023-05-09T02:33:17.707Z,3.75
2023-05-09T02:36:19.682Z,3.00
2023-05-09T02:39:21.627Z,3.83
2023-05-09T02:42:28.765Z,3.45
2023-05-09T02:45:32.122Z,3.28
2023-05-09T02:48:34.536Z,3.50
2023-05-09T02:51:36.607Z,3.13
2023-05-09T02:54:39.188Z,3.70
2023-05-09T02:57:41.857Z,4.10
2023-05-09T03:00:44.239Z,3.78
2023-05-09T03:03:48.093Z,4.03
2023-05-09T03:06:51.758Z,3.60
2023-05-09T03:09:53.907Z,3.83
2023-05-09T03:12:56.031Z,3.60
2023-05-09T03:16:10.914Z,4.03
2023-05-09T03:19:17.664Z,3.20
2023-05-09T03:22:21.405Z,3.78
2023-05-09T03:25:33.978Z,3.67
2023-05-09T03:28:36.233Z,3.80
2023-05-09T03:31:40.341Z,4.20
2023-05-09T03:34:42.470Z,4.28
2023-05-09T03:37:45.018Z,3.83
2023-05-09T03:40:47.068Z,4.35
2023-05-09T03:43:49.349Z,3.53
2023-05-09T03:46:51.392Z,4.15
2023-05-09T03:49:53.775Z,3.60
2023-05-09T03:52:58.305Z,4.40
2023-05-09T03:56:00.688Z,3.65
2023-05-09T03:59:08.037Z,4.03
2023-05-09T04:02:11.087Z,4.75
2023-05-09T04:05:13.591Z,3.95
2023-05-09T04:08:16.020Z,3.92
2023-05-09T04:11:18.548Z,3.95
2023-05-09T04:14:22.782Z,3.67
2023-05-09T04:17:25.629Z,4.32
2023-05-09T04:20:28.241Z,14.33
2023-05-09T04:23:30.887Z,4.78
2023-05-09T04:26:38.020Z,3.42
2023-05-09T04:29:43.364Z,4.20
2023-05-09T04:32:46.296Z,3.20
2023-05-09T04:35:48.919Z,3.30
2023-05-09T04:38:51.300Z,3.72
2023-05-09T04:41:58.481Z,3.75
2023-05-09T04:45:01.234Z,3.28
2023-05-09T04:48:06.179Z,3.55
2023-05-09T04:51:08.500Z,3.30
2023-05-09T04:54:10.690Z,2.83
2023-05-09T04:57:18.415Z,2.30
2023-05-09T05:00:28.065Z,2.53
2023-05-09T05:03:30.317Z,2.30
2023-05-09T05:06:33.052Z,2.92
2023-05-09T05:09:36.042Z,2.60
2023-05-09T05:12:38.659Z,2.33
2023-05-09T05:15:44.420Z,2.30
2023-05-09T05:18:48.008Z,2.28
2023-05-09T05:21:51.074Z,2.60
2023-05-09T05:24:53.474Z,2.50
2023-05-09T05:27:55.583Z,2.60
2023-05-09T05:30:58.153Z,6.22
2023-05-09T05:34:00.314Z,2.30
2023-05-09T05:37:02.727Z,3.10
2023-05-09T05:40:06.080Z,2.40
2023-05-09T05:43:09.015Z,2.60
2023-05-09T05:46:13.708Z,2.00
2023-05-09T05:49:16.232Z,2.28
2023-05-09T05:52:18.929Z,1.73
2023-05-09T05:55:21.106Z,1.83
2023-05-09T05:58:24.629Z,1.80
2023-05-09T06:01:27.460Z,1.65
2023-05-09T06:04:29.988Z,2.07
2023-05-09T06:07:32.138Z,1.60
2023-05-09T06:10:34.742Z,1.52
2023-05-09T06:13:37.320Z,1.35
2023-05-09T06:16:42.060Z,2.28
2023-05-09T06:19:44.655Z,1.97
2023-05-09T06:22:47.774Z,2.55
2023-05-09T06:25:50.558Z,1.60
2023-05-09T06:28:53.473Z,1.77
2023-05-09T06:31:55.827Z,1.57
2023-05-09T06:34:58.087Z,1.80
2023-05-09T06:38:00.557Z,1.75
2023-05-09T06:41:05.892Z,2.85
2023-05-09T06:44:09.714Z,1.63
2023-05-09T06:47:13.053Z,1.75
2023-05-09T06:50:15.824Z,1.40
2023-05-09T06:53:18.953Z,1.45
2023-05-09T06:56:23.997Z,1.93
2023-05-09T06:59:26.336Z,2.73
2023-05-09T07:02:28.885Z,2.17
2023-05-09T07:05:31.444Z,1.40
2023-05-09T07:08:33.741Z,1.42
2023-05-09T07:11:36.454Z,1.10
2023-05-09T07:14:39.061Z,1.40
2023-05-09T07:17:41.193Z,1.40
2023-05-09T07:20:43.256Z,1.73
2023-05-09T07:23:45.795Z,1.50
2023-05-09T07:26:48.443Z,1.20
2023-05-09T07:29:52.691Z,1.30
2023-05-09T07:32:54.837Z,1.83
2023-05-09T07:35:58.691Z,1.33
2023-05-09T07:39:01.533Z,1.52
2023-05-09T07:42:03.972Z,1.90
2023-05-09T07:45:11.199Z,1.50
2023-05-09T07:48:13.649Z,1.52
2023-05-09T07:51:19.408Z,1.40
2023-05-09T07:54:43.036Z,1.15
2023-05-09T07:57:45.020Z,1.30
2023-05-09T08:00:47.208Z,1.10
2023-05-09T08:03:49.812Z,1.27
2023-05-09T08:06:52.273Z,1.65
2023-05-09T08:09:54.433Z,1.58
2023-05-09T08:13:03.323Z,1.20
2023-05-09T08:16:05.900Z,1.00
2023-05-09T08:19:08.459Z,1.23
2023-05-09T08:22:16.600Z,1.30
2023-05-09T08:25:18.832Z,1.10
2023-05-09T08:28:24.261Z,1.10
2023-05-09T08:31:27.370Z,1.00
2023-05-09T08:34:31.352Z,1.40
2023-05-09T08:37:33.766Z,1.15
2023-05-09T08:40:37.774Z,1.00
2023-05-09T08:43:39.872Z,0.90
2023-05-09T08:46:43.732Z,2.50
2023-05-09T08:49:46.310Z,1.15
2023-05-09T08:52:49.365Z,1.17
2023-05-09T08:55:52.619Z,1.20
2023-05-09T08:58:54.860Z,1.00
2023-05-09T09:01:57.006Z,1.97
2023-05-09T09:04:59.568Z,1.10
2023-05-09T09:08:02.970Z,1.85
2023-05-09T09:11:26.570Z,1.40
2023-05-09T09:14:28.726Z,0.83
2023-05-09T09:17:31.252Z,1.30
2023-05-09T09:20:34.484Z,1.27
2023-05-09T09:23:37.410Z,1.35
2023-05-09T09:26:46.250Z,1.95
2023-05-09T09:29:48.323Z,1.70
2023-05-09T09:32:50.997Z,1.47
2023-05-09T09:35:59.362Z,1.27
2023-05-09T09:39:36.630Z,1.67
2023-05-09T09:43:08.236Z,1.48
2023-05-09T09:46:12.087Z,1.37
2023-05-09T09:49:14.652Z,1.30
2023-05-09T09:52:22.982Z,1.23
2023-05-09T09:55:25.552Z,1.10
2023-05-09T09:58:27.627Z,1.10
2023-05-09T10:01:30.105Z,1.33
2023-05-09T10:04:32.813Z,1.80
2023-05-09T10:07:38.505Z,1.30
2023-05-09T10:10:41.077Z,1.02
2023-05-09T10:13:43.778Z,1.38
2023-05-09T10:16:46.947Z,1.60
2023-05-09T10:19:49.492Z,1.37
2023-05-09T10:22:54.918Z,1.70
2023-05-09T10:25:58.937Z,1.65
2023-05-09T10:29:01.123Z,1.50
2023-05-09T10:32:12.291Z,1.77
2023-05-09T10:35:17.171Z,1.40
2023-05-09T10:38:19.479Z,1.27
2023-05-09T10:41:25.767Z,1.55
2023-05-09T10:44:28.599Z,1.70
2023-05-09T10:47:32.180Z,1.50
2023-05-09T10:50:35.759Z,1.50
2023-05-09T10:53:48.742Z,1.58
2023-05-09T10:56:51.368Z,1.50
2023-05-09T10:59:54.366Z,1.70
2023-05-09T11:03:08.160Z,2.10
2023-05-09T11:06:11.254Z,2.37
2023-05-09T11:09:29.168Z,1.35
2023-05-09T11:12:31.928Z,1.40
2023-05-09T11:15:34.279Z,1.58
2023-05-09T11:18:37.025Z,1.20
2023-05-09T11:21:43.718Z,1.43
2023-05-09T11:24:49.705Z,3.05
2023-05-09T11:27:52.440Z,1.70
2023-05-09T11:30:56.059Z,1.60
2023-05-09T11:34:02.797Z,1.70
2023-05-09T11:37:09.569Z,1.50
2023-05-09T11:40:12.397Z,2.08
2023-05-09T11:43:14.412Z,1.60
2023-05-09T11:46:16.900Z,1.50
2023-05-09T11:49:19.730Z,2.23
2023-05-09T11:52:22.276Z,2.03
2023-05-09T11:55:30.556Z,1.42
2023-05-09T11:58:33.078Z,1.23
2023-05-09T12:01:35.879Z,1.30
2023-05-09T12:04:39.156Z,1.70
2023-05-09T12:07:41.628Z,2.00
2023-05-09T12:10:44.166Z,1.30
2023-05-09T12:13:47.025Z,1.40
2023-05-09T12:16:49.258Z,1.35
2023-05-09T12:19:52.879Z,2.40
2023-05-09T12:22:55.979Z,1.80
2023-05-09T12:25:58.511Z,1.50
2023-05-09T12:29:00.606Z,1.50
2023-05-09T12:32:03.250Z,1.63
2023-05-09T12:35:05.519Z,1.70
2023-05-09T12:38:07.764Z,1.60
2023-05-09T12:41:21.985Z,1.80
2023-05-09T12:44:32.692Z,2.08
2023-05-09T12:47:34.869Z,1.40
2023-05-09T12:50:37.370Z,1.60
2023-05-09T12:53:40.046Z,1.53
2023-05-09T12:56:42.427Z,1.20
2023-05-09T12:59:45.020Z,3.10
2023-05-09T13:02:50.832Z,1.17
2023-05-09T13:06:02.160Z,1.30
2023-05-09T13:09:06.397Z,1.30
2023-05-09T13:12:10.180Z,1.55
2023-05-09T13:15:12.311Z,1.33
2023-05-09T13:18:14.606Z,1.17
2023-05-09T13:21:16.839Z,1.00
2023-05-09T13:24:23.941Z,1.30
2023-05-09T13:27:28.369Z,1.20
2023-05-09T13:30:31.776Z,1.00
2023-05-09T13:33:33.992Z,1.10
2023-05-09T13:36:36.542Z,1.20
2023-05-09T13:39:39.033Z,1.30
2023-05-09T13:42:41.543Z,1.20
2023-05-09T13:45:44.022Z,1.40
2023-05-09T13:48:47.815Z,1.17
2023-05-09T13:51:50.863Z,1.20
2023-05-09T13:54:53.061Z,1.33
2023-05-09T13:57:55.508Z,1.27
2023-05-09T14:00:57.832Z,1.33
2023-05-09T14:04:00.634Z,1.00
2023-05-09T14:07:03.309Z,1.00
2023-05-09T14:10:11.414Z,1.40
2023-05-09T14:13:15.855Z,3.40
2023-05-09T14:16:18.962Z,1.17
2023-05-09T14:19:21.662Z,1.30
2023-05-09T14:22:23.752Z,1.30
2023-05-09T14:25:26.580Z,1.27
2023-05-09T14:28:28.757Z,1.10
2023-05-09T14:31:30.813Z,1.20
2023-05-09T14:34:33.557Z,1.20
2023-05-09T14:37:35.942Z,1.43
2023-05-09T14:40:38.120Z,1.20
2023-05-09T14:43:40.128Z,1.10
2023-05-09T14:46:42.931Z,1.88
2023-05-09T14:49:44.957Z,2.42
2023-05-09T14:52:48.091Z,1.13
2023-05-09T14:55:51.413Z,2.00
2023-05-09T14:58:54.112Z,1.40
2023-05-09T15:01:56.528Z,1.15
2023-05-09T15:04:58.844Z,0.90
2023-05-09T15:08:01.100Z,1.20
2023-05-09T15:11:03.469Z,1.20
2023-05-09T15:14:05.432Z,0.93
2023-05-09T15:17:07.994Z,0.80
2023-05-09T15:20:10.935Z,1.00
2023-05-09T15:23:13.432Z,1.00
2023-05-09T15:26:17.036Z,1.30
2023-05-09T15:29:19.604Z,0.90
2023-05-09T15:32:22.327Z,0.90
2023-05-09T15:35:24.359Z,1.00
2023-05-09T15:38:26.911Z,1.03
2023-05-09T15:41:29.220Z,1.40
2023-05-09T15:44:31.637Z,1.20
2023-05-09T15:47:34.195Z,2.17
2023-05-09T15:50:36.719Z,1.30
2023-05-09T15:53:38.756Z,1.13
2023-05-09T15:56:40.762Z,1.10
2023-05-09T15:59:43.548Z,1.38
2023-05-09T16:02:46.239Z,1.63
2023-05-09T16:05:48.859Z,0.93
2023-05-09T16:08:50.894Z,1.20
2023-05-09T16:11:53.055Z,1.10
2023-05-09T16:14:55.125Z,1.33
2023-05-09T16:18:03.999Z,1.40
2023-05-09T16:21:06.662Z,1.70
2023-05-09T16:24:09.202Z,1.30
2023-05-09T16:27:11.221Z,1.20
2023-05-09T16:30:14.003Z,1.60
2023-05-09T16:33:16.383Z,1.08
2023-05-09T16:36:18.566Z,1.35
2023-05-09T16:39:20.927Z,1.40
2023-05-09T16:42:23.212Z,1.20
2023-05-09T16:45:25.830Z,1.42
2023-05-09T16:48:28.104Z,1.10
2023-05-09T16:51:30.660Z,1.50
2023-05-09T16:54:32.825Z,1.33
2023-05-09T16:57:35.446Z,1.40
2023-05-09T17:00:38.015Z,1.17
2023-05-09T17:03:40.034Z,1.30
2023-05-09T17:06:42.162Z,1.33
2023-05-09T17:09:44.325Z,1.60
2023-05-09T17:12:46.943Z,1.93
2023-05-09T17:15:52.781Z,1.40
2023-05-09T17:18:55.627Z,1.00
2023-05-09T17:21:58.974Z,1.52
2023-05-09T17:25:01.026Z,1.20
2023-05-09T17:28:03.527Z,1.27
2023-05-09T17:31:05.669Z,1.30
2023-05-09T17:34:07.845Z,1.30
2023-05-09T17:37:10.887Z,1.25
2023-05-09T17:40:13.465Z,1.30
2023-05-09T17:43:16.242Z,1.67
2023-05-09T17:46:18.249Z,1.15
2023-05-09T17:49:21.212Z,1.60
2023-05-09T17:52:23.420Z,1.63
2023-05-09T17:55:25.638Z,1.53
2023-05-09T17:58:28.265Z,1.77
2023-05-09T18:01:31.174Z,1.40
2023-05-09T18:04:34.714Z,1.98
2023-05-09T18:07:36.988Z,1.80
2023-05-09T18:10:39.079Z,1.70
2023-05-09T18:13:41.047Z,1.70
2023-05-09T18:16:43.253Z,1.67
2023-05-09T18:19:45.325Z,2.38
2023-05-09T18:22:47.592Z,1.67
2023-05-09T18:25:50.065Z,1.87
2023-05-09T18:28:52.424Z,1.70
2023-05-09T18:31:56.114Z,1.55
2023-05-09T18:34:58.937Z,1.90
2023-05-09T18:38:01.047Z,2.13
2023-05-09T18:41:03.195Z,2.20
2023-05-09T18:44:05.653Z,1.97
2023-05-09T18:47:07.886Z,1.80
2023-05-09T18:50:10.376Z,2.50
2023-05-09T18:53:12.547Z,2.50
2023-05-09T18:56:14.737Z,1.90
2023-05-09T18:59:17.913Z,1.80
2023-05-09T19:02:20.596Z,1.98
2023-05-09T19:05:23.184Z,1.73
2023-05-09T19:08:26.342Z,1.60
2023-05-09T19:11:28.378Z,1.90
2023-05-09T19:14:30.805Z,2.00
2023-05-09T19:17:32.911Z,1.83
2023-05-09T19:20:35.308Z,2.03
2023-05-09T19:23:37.323Z,2.10
2023-05-09T19:26:39.316Z,2.17
2023-05-09T19:29:41.926Z,2.10
2023-05-09T19:32:44.403Z,2.20
2023-05-09T19:35:46.939Z,1.90
2023-05-09T19:38:49.053Z,2.50
2023-05-09T19:41:51.199Z,2.30
2023-05-09T19:44:53.247Z,2.10
2023-05-09T19:47:55.902Z,2.38
2023-05-09T19:50:58.616Z,2.72
2023-05-09T19:54:01.099Z,2.22
2023-05-09T19:57:06.375Z,2.27
2023-05-09T20:00:09.050Z,1.70
2023-05-09T20:03:11.040Z,2.17
2023-05-09T20:06:13.636Z,1.90
2023-05-09T20:09:20.828Z,2.10
2023-05-09T20:12:23.337Z,1.77
2023-05-09T20:15:26.092Z,2.00
2023-05-09T20:18:28.619Z,2.42
2023-05-09T20:21:30.960Z,2.05
2023-05-09T20:24:33.121Z,1.85
2023-05-09T20:27:35.637Z,1.93
2023-05-09T20:30:38.264Z,2.20
2023-05-09T20:33:41.172Z,1.63
2023-05-09T20:36:43.443Z,1.92
2023-05-09T20:39:46.389Z,2.00
2023-05-09T20:42:48.616Z,2.10
2023-05-09T20:45:51.933Z,2.20
2023-05-09T20:48:54.406Z,2.60
2023-05-09T20:51:56.401Z,2.03
2023-05-09T20:54:59.467Z,1.80
2023-05-09T20:58:01.552Z,1.80
2023-05-09T21:01:03.900Z,1.97
2023-05-09T21:04:06.617Z,1.90
2023-05-09T21:07:10.175Z,1.80
2023-05-09T21:10:12.219Z,2.13
2023-05-09T21:13:14.760Z,2.03
2023-05-09T21:16:16.908Z,2.00
2023-05-09T21:19:19.029Z,2.20
2023-05-09T21:22:20.936Z,2.05
2023-05-09T21:25:23.612Z,1.90
2023-05-09T21:28:33.052Z,2.27
2023-05-09T21:31:35.444Z,2.20
2023-05-09T21:34:37.518Z,1.98
2023-05-09T21:37:40.068Z,1.73
2023-05-09T21:40:42.601Z,1.80
2023-05-09T21:43:44.949Z,1.85
2023-05-09T21:46:47.525Z,1.95
2023-05-09T21:49:50.006Z,2.03
2023-05-09T21:52:52.553Z,1.80
2023-05-09T21:55:54.890Z,1.80
2023-05-09T21:58:56.986Z,1.80
2023-05-09T22:01:58.997Z,2.08
2023-05-09T22:05:01.282Z,1.98
2023-05-09T22:08:03.911Z,1.70
2023-05-09T22:11:06.463Z,1.60
2023-05-09T22:14:10.214Z,1.88
2023-05-09T22:17:12.290Z,1.88
2023-05-09T22:20:14.931Z,1.55
2023-05-09T22:23:17.738Z,1.70
2023-05-09T22:26:20.206Z,2.08
2023-05-09T22:29:22.274Z,1.95
2023-05-09T22:32:24.298Z,1.80
2023-05-09T22:35:26.541Z,2.10
2023-05-09T22:38:28.882Z,2.10
2023-05-09T22:41:30.926Z,2.20
2023-05-09T22:44:32.886Z,2.58
2023-05-09T22:47:35.065Z,2.30
2023-05-09T22:50:37.148Z,2.15
2023-05-09T22:53:39.130Z,2.10
2023-05-09T22:56:43.135Z,2.20
2023-05-09T22:59:45.421Z,2.25
2023-05-09T23:02:47.389Z,2.22
2023-05-09T23:05:49.442Z,2.23
2023-05-09T23:08:51.465Z,2.87
2023-05-09T23:11:53.496Z,2.03
2023-05-09T23:14:55.862Z,2.10
2023-05-09T23:17:58.529Z,1.83
2023-05-09T23:21:00.862Z,2.30
2023-05-09T23:24:02.894Z,2.10
2023-05-09T23:27:04.889Z,2.25
2023-05-09T23:30:08.574Z,2.30
2023-05-09T23:33:11.579Z,2.47
2023-05-09T23:36:13.657Z,2.20
2023-05-09T23:39:15.762Z,2.37
2023-05-09T23:42:17.946Z,2.20
2023-05-09T23:45:20.894Z,2.70
2023-05-09T23:48:23.472Z,2.20
2023-05-09T23:51:25.536Z,2.50
2023-05-09T23:54:27.842Z,2.83
2023-05-09T23:57:29.975Z,2.38
